Time;durP1;ratioP1;P1;durP2;ratioP2;P2;SDS_P1;SDS_P2;PMS_P1;PMS_P2;Temp;Humidity;BMP_temperature;BMP_pressure;BME280_temperature;BME280_humidity;BME280_pressure;Samples;Min_cycle;Max_cycle;Signal;HPM_P1;HPM_P2
2022/12/25 00:02:28;;;;;;;27.48;9.35;;;;;;;3.14;100.00;101100.47;6052473;28;20490;-74
2022/12/25 00:05:23;;;;;;;29.70;10.23;;;;;;;3.28;100.00;101100.53;6052823;28;20181;-74
2022/12/25 00:08:19;;;;;;;41.87;13.30;;;;;;;3.25;100.00;101087.59;6052996;28;20037;-74
2022/12/25 00:11:16;;;;;;;41.07;13.03;;;;;;;3.20;100.00;101084.41;6053340;28;20029;-74
2022/12/25 00:14:12;;;;;;;33.95;12.15;;;;;;;3.24;100.00;101112.09;6052000;28;20061;-74
2022/12/25 00:17:07;;;;;;;32.92;10.05;;;;;;;3.15;100.00;101101.34;6053135;28;20044;-74
2022/12/25 00:20:03;;;;;;;31.38;10.43;;;;;;;3.13;100.00;101096.16;6052653;28;20061;-74
2022/12/25 00:22:58;;;;;;;33.38;9.27;;;;;;;3.19;100.00;101101.06;6051965;28;20467;-74
2022/12/25 00:25:53;;;;;;;30.47;7.87;;;;;;;3.23;100.00;101115.69;6052386;28;20030;-73
2022/12/25 00:28:56;;;;;;;31.07;9.63;;;;;;;3.17;100.00;101102.94;6052333;28;20284;-74
2022/12/25 00:31:52;;;;;;;39.08;9.70;;;;;;;3.18;100.00;101106.41;6052168;28;20033;-74
2022/12/25 00:34:47;;;;;;;34.03;9.80;;;;;;;3.08;100.00;101116.56;6052486;28;20060;-74
2022/12/25 00:37:42;;;;;;;34.80;9.90;;;;;;;2.94;100.00;101100.78;6052340;28;20042;-73
2022/12/25 00:40:42;;;;;;;27.33;7.93;;;;;;;2.91;100.00;101096.56;6052464;28;20050;-74
2022/12/25 00:43:40;;;;;;;30.20;7.57;;;;;;;2.97;100.00;101098.84;6051733;28;20054;-74
2022/12/25 00:46:35;;;;;;;33.78;9.80;;;;;;;3.16;100.00;101114.31;6052271;28;20041;-75
2022/12/25 00:49:31;;;;;;;25.43;9.00;;;;;;;3.16;100.00;101119.56;6052063;28;20050;-74
2022/12/25 00:52:26;;;;;;;29.10;7.73;;;;;;;3.13;100.00;101113.66;6051691;28;20033;-74
2022/12/25 00:55:21;;;;;;;28.00;8.80;;;;;;;3.08;100.00;101123.56;6051268;28;20033;-74
2022/12/25 00:58:16;;;;;;;23.30;8.43;;;;;;;3.12;100.00;101138.19;6051265;28;20034;-74
2022/12/25 01:01:12;;;;;;;23.83;7.53;;;;;;;3.08;100.00;101149.75;6052047;28;20038;-75
2022/12/25 01:04:09;;;;;;;26.25;7.05;;;;;;;2.94;100.00;101140.06;6051399;28;20056;-73
2022/12/25 01:07:04;;;;;;;27.40;6.93;;;;;;;3.06;100.00;101152.47;6052130;28;20037;-74
2022/12/25 01:13:13;;;;;;;18.20;6.03;;;;;;;3.08;100.00;101142.75;6050515;28;20022;-74
2022/12/25 01:16:09;;;;;;;19.90;6.27;;;;;;;3.13;100.00;101150.31;6051831;28;20034;-74
2022/12/25 01:19:05;;;;;;;20.75;7.18;;;;;;;2.99;100.00;101138.03;6050760;28;20516;-74
2022/12/25 01:22:00;;;;;;;23.13;8.93;;;;;;;2.86;100.00;101126.56;6049098;28;20030;-74
2022/12/25 01:24:55;;;;;;;26.60;7.60;;;;;;;3.00;100.00;101137.94;6051327;28;20049;-75
2022/12/25 01:27:50;;;;;;;20.00;6.90;;;;;;;3.00;100.00;101139.72;6051738;28;20045;-74
2022/12/25 01:30:49;;;;;;;23.30;6.33;;;;;;;3.15;100.00;101148.50;6051405;28;20041;-74
2022/12/25 01:33:44;;;;;;;26.52;6.38;;;;;;;3.18;100.00;101136.03;6050433;28;20041;-74
2022/12/25 01:36:39;;;;;;;22.38;7.03;;;;;;;3.32;100.00;101157.03;6051097;28;20040;-74
2022/12/25 01:39:35;;;;;;;28.77;6.10;;;;;;;3.50;100.00;101161.25;6051014;28;20468;-75
2022/12/25 01:42:30;;;;;;;31.67;6.17;;;;;;;3.57;100.00;101143.34;6050256;28;20069;-74
2022/12/25 01:45:40;;;;;;;25.50;6.33;;;;;;;3.65;100.00;101166.47;6051152;28;20032;-74
2022/12/25 01:48:36;;;;;;;33.33;7.00;;;;;;;3.78;100.00;101164.84;6050105;28;20117;-74
2022/12/25 01:51:43;;;;;;;30.80;6.38;;;;;;;3.79;100.00;101146.38;6050655;28;20030;-74
2022/12/25 01:54:44;;;;;;;27.13;6.68;;;;;;;3.84;100.00;101133.81;6050078;28;20048;-74
2022/12/25 01:57:40;;;;;;;24.55;5.75;;;;;;;3.93;100.00;101135.91;6049745;28;20030;-74
2022/12/25 02:00:35;;;;;;;20.08;5.88;;;;;;;3.93;100.00;101143.78;6049772;28;20553;-73
2022/12/25 02:03:30;;;;;;;23.40;4.97;;;;;;;3.91;100.00;101139.56;6049925;28;20042;-74
2022/12/25 02:06:29;;;;;;;21.43;5.57;;;;;;;3.90;100.00;101132.63;6049822;28;20035;-75
2022/12/25 02:09:24;;;;;;;18.30;5.03;;;;;;;4.05;100.00;101139.56;6057349;28;20034;-74
2022/12/25 02:12:23;;;;;;;26.43;6.00;;;;;;;4.04;100.00;101135.25;6032464;28;20376;-73
2022/12/25 02:15:21;;;;;;;22.55;5.82;;;;;;;3.95;100.00;101135.78;6048302;28;20117;-74
2022/12/25 02:18:40;;;;;;;19.52;5.40;;;;;;;3.97;100.00;101133.91;6048914;28;20042;-74
2022/12/25 02:21:41;;;;;;;16.48;4.78;;;;;;;4.01;100.00;101153.78;6050379;28;20058;-74
2022/12/25 02:24:45;;;;;;;14.68;5.32;;;;;;;3.92;100.00;101156.97;6049462;28;20442;-75
2022/12/25 02:28:14;;;;;;;18.77;5.07;;;;;;;3.89;100.00;101152.75;6050189;28;20104;-74
2022/12/25 02:31:15;;;;;;;31.48;5.20;;;;;;;3.79;100.00;101151.63;6048712;28;20046;-75
2022/12/25 02:34:18;;;;;;;18.85;4.47;;;;;;;3.77;100.00;101134.28;6049558;28;20483;-75
2022/12/25 02:37:35;;;;;;;25.23;5.28;;;;;;;3.82;100.00;101140.94;6050006;28;20054;-74
2022/12/25 02:40:36;;;;;;;19.08;5.47;;;;;;;3.77;100.00;101139.53;6028643;28;20049;-74
2022/12/25 03:06:45;;;;;;;22.05;6.60;;;;;;;3.78;100.00;101149.09;6034396;28;20399;-74
2022/12/25 03:13:06;;;;;;;23.92;6.57;;;;;;;4.11;100.00;101131.28;6034004;28;20473;-74
2022/12/25 03:28:59;;;;;;;17.92;5.63;;;;;;;4.70;100.00;101144.13;6047872;28;20038;-75
2022/12/25 03:31:56;;;;;;;22.13;4.53;;;;;;;4.75;100.00;101135.97;6053209;28;20056;-74
2022/12/25 03:38:54;;;;;;;20.13;4.50;;;;;;;4.80;100.00;101131.25;6039709;28;20121;-74
2022/12/25 04:37:16;;;;;;;18.10;4.75;;;;;;;5.32;100.00;101133.94;6052599;28;20037;-74
2022/12/25 04:40:11;;;;;;;18.13;3.67;;;;;;;5.30;100.00;101120.03;6052621;28;20046;-74
2022/12/25 04:43:07;;;;;;;25.05;3.58;;;;;;;5.31;100.00;101116.47;6051860;28;20084;-74
2022/12/25 04:46:03;;;;;;;20.03;5.23;;;;;;;5.32;100.00;101092.72;6052766;28;20034;-74
2022/12/25 04:48:58;;;;;;;13.50;4.53;;;;;;;5.41;100.00;101107.00;6052096;28;20026;-74
2022/12/25 04:51:53;;;;;;;21.87;4.83;;;;;;;5.49;100.00;101102.06;6051927;28;20088;-74
2022/12/25 04:54:48;;;;;;;20.93;4.80;;;;;;;5.44;100.00;101080.50;6051967;28;20061;-74
2022/12/25 04:57:44;;;;;;;14.47;4.03;;;;;;;5.58;100.00;101090.94;6052141;28;20044;-75
2022/12/25 05:00:39;;;;;;;21.57;4.47;;;;;;;5.61;100.00;101076.72;6052424;28;20391;-74
2022/12/25 05:03:34;;;;;;;16.13;3.93;;;;;;;5.58;100.00;101077.78;6051318;28;20041;-74
2022/12/25 05:06:30;;;;;;;18.35;4.30;;;;;;;5.68;100.00;101083.28;6035563;28;20109;-74
2022/12/25 05:09:25;;;;;;;18.17;4.20;;;;;;;5.64;100.00;101090.53;6051806;28;20057;-74
2022/12/25 05:12:21;;;;;;;18.88;4.40;;;;;;;5.68;100.00;101089.34;6051240;28;20040;-73
2022/12/25 05:15:16;;;;;;;17.70;3.47;;;;;;;5.79;100.00;101112.28;6051842;28;20037;-74
2022/12/25 05:18:11;;;;;;;17.93;3.97;;;;;;;5.77;100.00;101099.25;6051146;28;20037;-74
2022/12/25 05:21:09;;;;;;;18.00;4.27;;;;;;;5.93;100.00;101093.78;6052233;28;20331;-74
2022/12/25 05:24:04;;;;;;;14.20;4.30;;;;;;;6.01;100.00;101086.19;6042044;28;20506;-74
2022/12/25 05:27:00;;;;;;;18.05;4.28;;;;;;;5.99;100.00;101072.31;6051449;28;20069;-74
2022/12/25 05:29:55;;;;;;;15.70;3.47;;;;;;;5.99;100.00;101072.31;6051778;28;20038;-74
2022/12/25 05:32:50;;;;;;;13.57;4.00;;;;;;;6.07;100.00;101079.66;6050460;28;20045;-74
2022/12/25 05:35:46;;;;;;;19.23;3.50;;;;;;;6.10;100.00;101085.56;6051552;28;20465;-74
2022/12/25 05:38:41;;;;;;;21.90;4.63;;;;;;;6.11;100.00;101076.72;6051005;28;20040;-74
2022/12/25 05:41:36;;;;;;;13.18;3.92;;;;;;;6.20;100.00;101075.19;6050387;28;20097;-74
2022/12/25 05:44:32;;;;;;;20.77;4.03;;;;;;;6.15;100.00;101064.16;6049904;28;20080;-73
2022/12/25 05:47:27;;;;;;;17.03;3.90;;;;;;;6.28;100.00;101086.03;6050679;28;20458;-74
2022/12/25 05:50:22;;;;;;;16.03;3.93;;;;;;;6.24;100.00;101071.41;6051228;28;20034;-74
2022/12/25 05:53:18;;;;;;;23.83;4.50;;;;;;;6.33;100.00;101082.13;6049939;28;20045;-74
2022/12/25 05:56:13;;;;;;;23.92;4.32;;;;;;;6.23;100.00;101049.50;6050667;28;20543;-74
2022/12/25 05:59:08;;;;;;;15.80;3.80;;;;;;;6.44;100.00;101074.28;6050830;28;20128;-74
2022/12/25 06:02:04;;;;;;;21.05;3.53;;;;;;;6.48;100.00;101093.34;6049842;28;20095;-74
2022/12/25 06:04:59;;;;;;;18.93;3.60;;;;;;;6.41;100.00;101065.78;6050577;28;20061;-74
2022/12/25 06:07:55;;;;;;;10.20;3.23;;;;;;;6.52;100.00;101094.84;6050693;28;20395;-74
2022/12/25 06:10:50;;;;;;;11.32;3.00;;;;;;;6.40;100.00;101069.38;6050063;28;20038;-74
2022/12/25 06:13:49;;;;;;;15.30;3.57;;;;;;;6.34;100.00;101085.59;6050037;28;20372;-73
2022/12/25 06:16:44;;;;;;;17.02;3.15;;;;;;;6.20;100.00;101076.06;6064275;28;20030;-74
2022/12/25 06:19:41;;;;;;;13.75;4.35;;;;;;;6.04;100.00;101069.34;6050247;28;20048;-73
2022/12/25 06:22:36;;;;;;;14.00;3.05;;;;;;;5.68;100.00;101042.00;6049599;28;20033;-74
2022/12/25 06:25:32;;;;;;;14.20;3.13;;;;;;;5.71;100.00;101047.06;6050456;28;20029;-73
2022/12/25 06:28:27;;;;;;;17.97;3.77;;;;;;;5.67;100.00;101053.50;6050135;28;20064;-73
2022/12/25 06:31:23;;;;;;;16.07;3.73;;;;;;;5.62;100.00;101052.13;6050105;28;20033;-75
2022/12/25 06:34:18;;;;;;;16.88;4.68;;;;;;;5.55;100.00;101056.94;6049198;28;20041;-74
2022/12/25 06:37:13;;;;;;;17.77;3.50;;;;;;;5.46;100.00;101048.88;6049868;28;20368;-74
2022/12/25 06:40:09;;;;;;;16.97;4.27;;;;;;;5.39;100.00;101046.66;6032342;28;20116;-73
2022/12/25 06:43:04;;;;;;;18.85;4.55;;;;;;;5.37;100.00;101047.69;6031651;28;20116;-74
2022/12/25 06:46:08;;;;;;;19.90;4.90;;;;;;;5.45;100.00;101055.91;6049936;28;20539;-74
2022/12/25 06:49:03;;;;;;;23.98;4.72;;;;;;;5.31;100.00;101053.38;6049047;28;20762;-73
2022/12/25 06:51:58;;;;;;;16.07;3.70;;;;;;;5.34;100.00;101063.69;6031521;28;20041;-74
2022/12/25 06:54:54;;;;;;;21.33;3.73;;;;;;;5.36;100.00;101064.41;6048849;28;20037;-74
2022/12/25 06:57:49;;;;;;;10.57;3.93;;;;;;;5.20;100.00;101030.44;6049435;28;20558;-73
2022/12/25 07:00:44;;;;;;;21.17;4.37;;;;;;;5.30;100.00;101049.06;6049893;28;20040;-73
2022/12/25 07:03:41;;;;;;;19.97;4.70;;;;;;;5.36;100.00;101061.78;6048980;28;20022;-74
2022/12/25 07:06:36;;;;;;;25.17;5.82;;;;;;;5.28;100.00;101049.16;6031773;28;20038;-74
2022/12/25 07:09:31;;;;;;;19.50;4.90;;;;;;;5.20;100.00;101051.47;6049495;28;20107;-73
2022/12/25 07:12:27;;;;;;;20.57;5.23;;;;;;;5.09;100.00;101042.63;6048607;28;20038;-74
2022/12/25 07:15:22;;;;;;;24.47;6.00;;;;;;;4.93;100.00;101055.09;6049256;28;20288;-74
2022/12/25 07:18:17;;;;;;;20.90;4.93;;;;;;;4.76;100.00;101040.44;6049577;28;20074;-73
2022/12/25 07:21:15;;;;;;;26.07;6.83;;;;;;;4.74;100.00;101064.19;6049234;28;20036;-74
2022/12/25 07:24:10;;;;;;;16.40;4.95;;;;;;;4.62;100.00;101067.63;6048648;28;20100;-74
2022/12/25 07:27:07;;;;;;;12.80;4.40;;;;;;;4.60;100.00;101060.78;6049196;28;20033;-73
2022/12/25 07:30:02;;;;;;;21.58;5.72;;;;;;;4.56;100.00;101070.66;6049318;28;20030;-73
2022/12/25 07:32:57;;;;;;;20.10;5.70;;;;;;;4.50;100.00;101063.16;6048758;28;20040;-73
2022/12/25 07:35:53;;;;;;;16.23;5.07;;;;;;;4.39;100.00;101060.38;6048916;28;20475;-73
2022/12/25 07:38:48;;;;;;;24.17;6.97;;;;;;;4.30;100.00;101053.09;6048908;28;20080;-74
2022/12/25 07:41:44;;;;;;;12.68;4.70;;;;;;;4.19;100.00;101045.91;6048791;28;20030;-74
2022/12/25 07:44:39;;;;;;;24.50;7.03;;;;;;;4.25;100.00;101057.78;6048526;28;20017;-74
2022/12/25 07:47:34;;;;;;;24.83;6.20;;;;;;;4.25;100.00;101057.78;6048601;28;20045;-74
2022/12/25 07:50:30;;;;;;;20.20;6.80;;;;;;;4.26;100.00;101050.78;6049080;28;20033;-74
2022/12/25 07:53:25;;;;;;;27.77;6.83;;;;;;;4.20;100.00;101046.75;6048437;28;20061;-73
2022/12/25 07:56:21;;;;;;;18.08;6.32;;;;;;;4.23;100.00;101041.31;6048894;28;20374;-74
2022/12/25 07:59:16;;;;;;;18.75;5.32;;;;;;;4.35;100.00;101051.00;6048957;28;20084;-75
2022/12/25 08:02:11;;;;;;;25.70;6.00;;;;;;;4.31;100.00;101023.28;6048054;28;20022;-74
2022/12/25 08:05:07;;;;;;;16.60;5.17;;;;;;;4.39;100.00;101030.66;6049051;28;20069;-74
2022/12/25 08:08:02;;;;;;;22.35;6.28;;;;;;;4.39;100.00;101013.13;6053692;28;20060;-74
2022/12/25 08:10:59;;;;;;;19.37;5.60;;;;;;;4.39;100.00;101015.75;6053235;28;20037;-73
2022/12/25 08:13:54;;;;;;;20.95;6.38;;;;;;;4.30;100.00;101000.59;6052890;28;20053;-73
2022/12/25 08:16:50;;;;;;;19.73;5.30;;;;;;;4.36;100.00;101005.47;6052614;28;20489;-74
2022/12/25 08:19:45;;;;;;;27.60;4.73;;;;;;;4.37;100.00;101003.69;6052773;28;20066;-74
2022/12/25 08:22:40;;;;;;;21.63;5.97;;;;;;;4.34;100.00;100985.50;6052249;28;20091;-72
2022/12/25 08:25:35;;;;;;;19.80;5.43;;;;;;;4.34;100.00;100975.84;6052815;28;20042;-74
2022/12/25 08:28:31;;;;;;;18.50;5.90;;;;;;;4.22;100.00;100951.22;6052897;28;20057;-73
2022/12/25 08:31:28;;;;;;;16.52;6.18;;;;;;;4.29;100.00;100962.19;6043450;28;20048;-74
2022/12/25 08:34:23;;;;;;;16.55;5.85;;;;;;;4.46;100.00;100980.28;6051783;28;20084;-75
2022/12/25 08:37:19;;;;;;;20.10;5.93;;;;;;;4.61;100.00;101000.28;6051063;28;20042;-74
2022/12/25 08:40:14;;;;;;;22.53;5.97;;;;;;;4.53;100.00;100997.34;6050624;28;20598;-74
2022/12/25 08:43:09;;;;;;;18.25;5.78;;;;;;;4.62;100.00;101024.78;6047526;28;20279;-74
2022/12/25 08:46:05;;;;;;;21.10;5.93;;;;;;;4.38;100.00;100985.19;6050874;28;20040;-75
2022/12/25 08:49:00;;;;;;;15.33;4.90;;;;;;;4.55;100.00;101008.56;6047717;28;20041;-73
2022/12/25 08:51:55;;;;;;;16.60;5.87;;;;;;;4.77;100.00;101036.88;6049513;28;20442;-74
2022/12/25 08:54:50;;;;;;;19.13;5.63;;;;;;;4.86;100.00;101032.81;6051616;28;20042;-73
2022/12/25 08:57:46;;;;;;;13.23;4.47;;;;;;;4.90;100.00;101034.28;6050753;28;20104;-75
2022/12/25 09:00:41;;;;;;;10.63;4.07;;;;;;;4.95;100.00;101034.81;6052268;28;20022;-75
2022/12/25 09:03:37;;;;;;;21.93;4.47;;;;;;;5.04;100.00;101035.06;6051420;28;20495;-74
2022/12/25 09:06:32;;;;;;;17.23;4.90;;;;;;;5.05;100.00;101025.38;6051938;28;20301;-74
2022/12/25 09:09:27;;;;;;;16.30;4.90;;;;;;;4.95;100.00;101019.03;6051517;28;20045;-74
2022/12/25 09:12:23;;;;;;;20.63;6.10;;;;;;;5.12;100.00;101021.38;6051221;28;20056;-75
2022/12/25 09:15:18;;;;;;;20.30;6.53;;;;;;;5.07;100.00;101007.72;6051854;28;20036;-74
2022/12/25 09:18:13;;;;;;;19.13;7.40;;;;;;;5.18;100.00;101003.44;6050030;28;20029;-74
2022/12/25 09:21:10;;;;;;;23.63;7.00;;;;;;;5.12;100.00;100984.59;6051568;28;20276;-74
2022/12/25 09:24:06;;;;;;;17.63;6.28;;;;;;;5.18;100.00;100999.94;6050879;28;20038;-75
2022/12/25 09:27:01;;;;;;;19.25;5.70;;;;;;;5.25;100.00;100985.44;6050760;28;20072;-74
2022/12/25 09:29:57;;;;;;;17.40;4.77;;;;;;;5.25;100.00;100996.78;6051687;28;20113;-75
2022/12/25 09:32:52;;;;;;;19.13;5.50;;;;;;;5.26;100.00;100990.59;6050982;28;20021;-74
2022/12/25 09:35:55;;;;;;;17.20;6.20;;;;;;;5.23;100.00;100985.56;6050956;28;20506;-74
2022/12/25 09:38:51;;;;;;;17.52;5.47;;;;;;;5.34;100.00;101005.84;6050901;28;20033;-75
2022/12/25 09:42:09;;;;;;;28.00;5.85;;;;;;;5.41;100.00;101034.22;6050979;28;20033;-75
2022/12/25 09:45:14;;;;;;;18.90;5.68;;;;;;;5.43;100.00;101033.28;6051131;28;20044;-73
2022/12/25 09:48:13;;;;;;;30.45;7.30;;;;;;;5.49;100.00;101028.44;6050868;28;20040;-75
2022/12/25 09:51:11;;;;;;;21.55;8.52;;;;;;;5.62;100.00;101024.03;6049838;28;20046;-73
2022/12/25 09:54:20;;;;;;;24.15;6.72;;;;;;;5.79;100.00;101034.19;6049283;28;20038;-73
2022/12/25 09:57:15;;;;;;;22.38;6.80;;;;;;;5.85;100.00;101023.28;6033510;28;20547;-74
2022/12/25 10:00:16;;;;;;;18.07;7.10;;;;;;;5.84;100.00;101010.22;6051094;28;20026;-74
2022/12/25 10:03:24;;;;;;;32.13;8.13;;;;;;;6.01;100.00;101016.94;6049761;28;20269;-74
2022/12/25 10:06:29;;;;;;;20.27;7.28;;;;;;;6.05;100.00;101003.44;6049601;28;20116;-73
2022/12/25 10:09:34;;;;;;;19.50;6.57;;;;;;;6.17;100.00;100985.94;6049910;28;20034;-75
2022/12/25 10:12:39;;;;;;;18.52;7.18;;;;;;;6.31;100.00;101004.19;6049591;28;20056;-73
2022/12/25 10:15:49;;;;;;;17.50;6.30;;;;;;;6.30;100.00;101003.38;6049021;28;20040;-74
2022/12/25 10:19:28;;;;;;;23.55;7.53;;;;;;;6.25;100.00;100996.75;6050124;28;20038;-74
2022/12/25 10:22:41;;;;;;;24.40;6.80;;;;;;;6.12;100.00;100967.81;6049883;28;20046;-74
2022/12/25 10:25:38;;;;;;;19.30;6.53;;;;;;;6.12;100.00;100961.72;6048376;28;20029;-75
2022/12/25 10:28:34;;;;;;;17.42;5.95;;;;;;;6.16;100.00;100955.28;6048130;28;20033;-74
2022/12/25 10:31:34;;;;;;;25.55;6.28;;;;;;;6.15;100.00;100925.47;6037368;28;20044;-74
2022/12/25 10:34:29;;;;;;;13.95;4.63;;;;;;;6.28;100.00;100918.34;6046428;28;20033;-73
2022/12/25 10:37:24;;;;;;;13.30;4.87;;;;;;;6.32;100.00;100919.81;6031370;28;20042;-74
2022/12/25 10:40:29;;;;;;;27.02;8.32;;;;;;;6.35;100.00;100910.84;6048834;28;20108;-74
2022/12/25 10:43:41;;;;;;;19.48;8.02;;;;;;;6.50;100.00;100920.22;6047313;28;20026;-73
2022/12/25 10:46:36;;;;;;;16.70;5.63;;;;;;;6.65;100.00;100927.00;6047335;28;20034;-74
2022/12/25 10:49:37;;;;;;;16.73;4.43;;;;;;;6.61;100.00;100904.44;6049422;28;20092;-73
2022/12/25 10:52:32;;;;;;;14.27;4.70;;;;;;;6.65;100.00;100900.63;6031668;28;20054;-73
2022/12/25 10:55:29;;;;;;;13.97;5.00;;;;;;;6.57;100.00;100903.00;6048887;28;20071;-74
2022/12/25 10:58:24;;;;;;;12.52;4.00;;;;;;;6.65;100.00;100898.00;6048393;28;20112;-73
2022/12/25 11:01:20;;;;;;;24.48;4.95;;;;;;;6.77;100.00;100891.78;6047215;28;20034;-74
2022/12/25 11:04:25;;;;;;;22.38;4.78;;;;;;;6.72;100.00;100904.47;6047693;28;20046;-73
2022/12/25 11:07:23;;;;;;;13.70;4.57;;;;;;;6.75;100.00;100920.06;6047804;28;20069;-76
2022/12/25 11:10:30;;;;;;;14.23;4.32;;;;;;;6.73;100.00;100932.53;6048132;28;20038;-72
2022/12/25 11:13:27;;;;;;;9.27;3.95;;;;;;;6.83;100.00;100948.47;6048200;28;20045;-75
2022/12/25 11:16:34;;;;;;;10.85;3.42;;;;;;;6.78;100.00;100940.91;6049430;28;20467;-74
2022/12/25 11:19:31;;;;;;;11.50;3.95;;;;;;;6.67;100.00;100943.50;6032153;28;20121;-74
2022/12/25 11:22:28;;;;;;;11.93;4.25;;;;;;;6.67;100.00;100932.97;6048717;28;20076;-75
2022/12/25 11:25:25;;;;;;;17.00;4.25;;;;;;;6.71;100.00;100946.78;6049880;28;20368;-74
2022/12/25 11:28:21;;;;;;;10.75;4.45;;;;;;;6.49;100.00;100908.03;6049469;28;20491;-75
2022/12/25 11:31:19;;;;;;;13.57;4.33;;;;;;;6.71;100.00;100929.16;6049286;28;20037;-73
2022/12/25 11:34:26;;;;;;;10.80;3.78;;;;;;;6.74;100.00;100917.56;6048497;28;20770;-73
2022/12/25 11:37:41;;;;;;;14.65;4.72;;;;;;;6.67;100.00;100908.41;6031774;28;20030;-75
2022/12/25 11:40:43;;;;;;;11.32;3.75;;;;;;;6.73;100.00;100906.16;6031891;28;20061;-75
2022/12/25 11:43:44;;;;;;;14.98;4.75;;;;;;;6.68;100.00;100891.66;6068679;28;20045;-73
2022/12/25 11:46:42;;;;;;;13.70;3.90;;;;;;;6.76;100.00;100911.22;6052641;28;20044;-74
2022/12/25 11:49:44;;;;;;;12.88;4.35;;;;;;;6.77;100.00;100912.88;6053659;28;20061;-75
2022/12/25 11:52:42;;;;;;;13.80;4.18;;;;;;;6.75;100.00;100912.16;6052055;28;20485;-75
2022/12/25 11:55:41;;;;;;;15.70;4.30;;;;;;;6.87;100.00;100910.38;6053498;28;20041;-74
2022/12/25 11:58:41;;;;;;;9.90;3.92;;;;;;;6.88;100.00;100899.72;6052497;28;20032;-74
2022/12/25 12:01:42;;;;;;;15.38;5.05;;;;;;;6.87;100.00;100908.59;6053763;28;20417;-73
2022/12/25 12:04:42;;;;;;;13.43;4.70;;;;;;;6.95;100.00;100900.09;6035424;28;20034;-74
2022/12/25 12:07:49;;;;;;;11.15;4.60;;;;;;;6.89;100.00;100869.78;6035692;28;20411;-75
2022/12/25 12:11:14;;;;;;;15.43;4.93;;;;;;;6.94;100.00;100864.13;6052333;28;20045;-75
2022/12/25 12:14:30;;;;;;;15.38;4.88;;;;;;;6.95;100.00;100836.81;6036486;28;20066;-75
2022/12/25 12:17:25;;;;;;;142.35;65.70;;;;;;;6.93;100.00;100836.94;6053241;28;20040;-74
2022/12/25 12:20:27;;;;;;;43.27;17.03;;;;;;;7.00;100.00;100839.94;6035784;28;20472;-73
2022/12/25 12:23:22;;;;;;;27.85;11.57;;;;;;;6.95;100.00;100816.56;6052110;28;20049;-73
2022/12/25 12:26:24;;;;;;;52.85;23.73;;;;;;;7.08;100.00;100835.75;6052971;28;20041;-76
2022/12/25 12:29:23;;;;;;;25.95;10.52;;;;;;;6.91;100.00;100823.03;6035406;28;20033;-75
2022/12/25 12:32:33;;;;;;;21.08;8.70;;;;;;;6.88;100.00;100820.63;6052389;28;20042;-75
2022/12/25 12:35:31;;;;;;;24.35;7.50;;;;;;;6.94;100.00;100828.06;6052497;28;20044;-74
2022/12/25 12:38:27;;;;;;;25.27;7.53;;;;;;;6.90;100.00;100817.91;6052894;28;20029;-74
2022/12/25 12:41:23;;;;;;;15.75;8.80;;;;;;;6.87;100.00;100812.88;6052962;28;20037;-75
2022/12/25 12:44:20;;;;;;;19.02;6.88;;;;;;;6.88;100.00;100814.53;6050698;28;20088;-75
2022/12/25 12:47:28;;;;;;;18.88;6.50;;;;;;;6.78;100.00;100795.97;6052362;28;20038;-75
2022/12/25 12:50:36;;;;;;;17.33;6.45;;;;;;;6.85;100.00;100806.88;6052139;28;20034;-74
2022/12/25 12:53:32;;;;;;;20.50;8.60;;;;;;;6.87;100.00;100807.59;6051954;28;20034;-73
2022/12/25 12:56:27;;;;;;;14.95;5.95;;;;;;;6.79;100.00;100781.84;6052359;28;20032;-75
2022/12/25 12:59:23;;;;;;;19.40;6.63;;;;;;;6.83;100.00;100791.16;6035128;28;20026;-75
2022/12/25 13:02:52;;;;;;;17.13;5.70;;;;;;;6.90;100.00;100781.81;6034082;28;20018;-76
2022/12/25 13:06:03;;;;;;;14.15;6.18;;;;;;;6.87;100.00;100779.44;6035252;28;20380;-76
2022/12/25 13:09:27;;;;;;;16.35;5.93;;;;;;;6.93;100.00;100764.94;6051022;28;20037;-74
2022/12/25 13:12:22;;;;;;;21.42;6.43;;;;;;;6.95;100.00;100770.91;6051616;28;20084;-74
2022/12/25 13:15:18;;;;;;;16.17;6.85;;;;;;;6.90;100.00;100755.44;6051790;28;20076;-76
2022/12/25 13:18:13;;;;;;;19.17;8.73;;;;;;;6.90;100.00;100755.44;6051789;28;20121;-74
2022/12/25 13:21:16;;;;;;;23.10;8.48;;;;;;;6.89;100.00;100737.97;6033807;28;20037;-76
2022/12/25 13:24:20;;;;;;;20.50;7.88;;;;;;;6.98;100.00;100753.06;6049845;28;20084;-75
2022/12/25 13:27:24;;;;;;;18.75;7.07;;;;;;;7.02;100.00;100741.31;6051704;28;20037;-74
2022/12/25 13:30:20;;;;;;;19.08;7.00;;;;;;;6.96;100.00;100749.69;6051786;28;20030;-73
2022/12/25 13:33:18;;;;;;;23.27;8.15;;;;;;;6.96;100.00;100764.66;6050511;28;20033;-74
2022/12/25 13:36:14;;;;;;;27.88;9.23;;;;;;;6.97;100.00;100756.66;6049291;28;20036;-74
2022/12/25 13:39:14;;;;;;;34.17;14.32;;;;;;;6.97;100.00;100751.38;6051618;28;20025;-74
2022/12/25 13:42:15;;;;;;;23.88;10.52;;;;;;;6.89;100.00;100740.63;6032950;28;20098;-72
2022/12/25 13:45:36;;;;;;;26.00;9.50;;;;;;;6.98;100.00;100754.88;5990529;28;20050;-75
2022/12/25 13:48:32;;;;;;;24.60;8.77;;;;;;;6.97;100.00;100746.13;6026100;28;20046;-74
2022/12/25 13:51:27;;;;;;;37.47;12.63;;;;;;;6.97;100.00;100743.47;6027069;28;20053;-75
2022/12/25 13:54:23;;;;;;;32.63;11.40;;;;;;;6.99;100.00;100717.81;6026525;28;20281;-73
2022/12/25 13:57:33;;;;;;;25.77;11.35;;;;;;;6.97;100.00;100719.75;6027579;28;20026;-72
2022/12/25 14:00:44;;;;;;;22.58;9.70;;;;;;;6.97;100.00;100711.84;6032753;28;20042;-75
2022/12/25 14:03:42;;;;;;;27.50;9.40;;;;;;;6.97;100.00;100692.56;6037493;28;20041;-72
2022/12/25 14:06:38;;;;;;;24.98;6.75;;;;;;;6.95;100.00;100687.41;6033836;28;20109;-74
2022/12/25 14:09:33;;;;;;;19.30;6.40;;;;;;;6.98;100.00;100684.53;6022416;28;20042;-73
2022/12/25 14:12:30;;;;;;;24.38;7.43;;;;;;;7.00;100.00;100695.78;6021175;28;20523;-69
2022/12/25 14:15:27;;;;;;;25.73;8.18;;;;;;;7.01;100.00;100683.44;6008442;28;20041;-72
2022/12/25 14:18:23;;;;;;;23.55;7.72;;;;;;;6.96;100.00;100669.78;6022039;28;20569;-71
2022/12/25 14:21:33;;;;;;;21.95;7.13;;;;;;;7.02;100.00;100674.56;6026067;28;20109;-74
2022/12/25 14:24:29;;;;;;;21.27;9.52;;;;;;;7.02;100.00;100664.84;6025245;28;20514;-74
2022/12/25 14:27:27;;;;;;;22.50;8.00;;;;;;;7.01;100.00;100665.00;6026772;28;20027;-73
2022/12/25 14:30:24;;;;;;;20.67;9.48;;;;;;;7.00;100.00;100639.59;6024550;28;20503;-76
2022/12/25 14:33:22;;;;;;;26.95;9.75;;;;;;;7.03;100.00;100634.91;6021732;28;20042;-74
2022/12/25 14:36:17;;;;;;;20.50;8.63;;;;;;;7.04;100.00;100623.38;6022293;28;20073;-72
2022/12/25 14:39:40;;;;;;;28.42;9.70;;;;;;;7.10;100.00;100620.25;6008705;28;20046;-73
2022/12/25 14:42:35;;;;;;;26.98;11.80;;;;;;;7.03;100.00;100592.72;6018882;28;20095;-73
2022/12/25 14:45:37;;;;;;;34.97;14.40;;;;;;;7.14;100.00;100595.31;6024959;28;20491;-72
2022/12/25 14:48:32;;;;;;;27.85;12.25;;;;;;;7.17;100.00;100584.47;6006784;28;20724;-75
2022/12/25 14:51:29;;;;;;;23.83;9.30;;;;;;;7.23;100.00;100592.88;6023082;28;20045;-70
2022/12/25 14:54:25;;;;;;;24.98;8.10;;;;;;;7.25;100.00;100597.06;6002792;28;20539;-75
2022/12/25 14:57:39;;;;;;;21.15;7.72;;;;;;;7.17;100.00;100576.56;6023734;28;20036;-75
2022/12/25 15:00:36;;;;;;;25.65;9.02;;;;;;;7.08;100.00;100572.09;6016559;28;20113;-74
2022/12/25 15:03:36;;;;;;;17.45;6.75;;;;;;;7.28;100.00;100609.16;6020972;28;20042;-73
2022/12/25 15:06:31;;;;;;;28.60;12.13;;;;;;;7.25;100.00;100596.22;6023045;28;20033;-74
2022/12/25 15:09:28;;;;;;;17.67;6.60;;;;;;;7.29;100.00;100603.72;6024207;28;20080;-73
2022/12/25 15:12:23;;;;;;;17.05;6.45;;;;;;;7.29;100.00;100605.53;6025087;28;20101;-72
2022/12/25 15:15:19;;;;;;;12.77;6.07;;;;;;;7.25;100.00;100596.22;6029592;28;20388;-71
2022/12/25 15:18:14;;;;;;;16.42;6.63;;;;;;;7.25;100.00;100599.69;6006242;28;20173;-71
2022/12/25 15:21:14;;;;;;;21.83;7.28;;;;;;;7.20;100.00;100588.69;6003512;28;20053;-72
2022/12/25 15:24:11;;;;;;;18.65;7.85;;;;;;;7.27;100.00;100594.28;6021270;28;20038;-75